Time;durP1;ratioP1;P1;durP2;ratioP2;P2;SDS_P1;SDS_P2;PMS_P1;PMS_P2;Temp;Humidity;BMP_temperature;BMP_pressure;BME280_temperature;BME280_humidity;BME280_pressure;Samples;Min_cycle;Max_cycle;Signal;HPM_P1;HPM_P2
2022/02/08 00:02:00;;;;;;;;;;;3.70;99.90;;;;;;4918557;29;19943;-90
2022/02/08 00:04:22;;;;;;;;;;;3.70;99.90;;;;;;4917759;29;19911;-90
2022/02/08 00:07:01;;;;;;;;;;;3.60;99.90;;;;;;4901391;29;19951;-89
2022/02/08 00:09:31;;;;;;;;;;;3.60;99.90;;;;;;4918569;29;20431;-89
2022/02/08 00:12:07;;;;;;;;;;;3.60;99.90;;;;;;4918442;29;19922;-90
2022/02/08 00:14:33;;;;;;;;;;;3.50;99.90;;;;;;4901491;29;19915;-90
2022/02/08 00:17:06;;;;;;;;;;;3.40;99.90;;;;;;4901241;29;20335;-90
2022/02/08 00:19:32;;;;;;;;;;;3.40;99.90;;;;;;4909163;29;20402;-90
2022/02/08 00:21:58;;;;;;;;;;;3.40;99.90;;;;;;4913380;29;19915;-90
2022/02/08 00:24:26;;;;;;;;;;;3.30;99.90;;;;;;4915673;29;19911;-90
2022/02/08 00:26:52;;;;;;;;;;;3.30;99.90;;;;;;4908804;29;20001;-90
2022/02/08 00:29:21;;;;;;;;;;;3.30;99.90;;;;;;4905381;29;20387;-90
2022/02/08 00:31:52;;;;;;;;;;;3.20;99.90;;;;;;4904686;29;19990;-89
2022/02/08 00:34:27;;;;;;;;;;;3.30;99.90;;;;;;4904972;29;20047;-89
2022/02/08 00:36:55;;;;;;;;;;;3.30;99.90;;;;;;4920740;29;20010;-89
2022/02/08 00:39:26;;;;;;;;;;;3.20;99.90;;;;;;4904129;29;20382;-90
2022/02/08 00:42:02;;;;;;;;;;;3.20;99.90;;;;;;4904499;29;19911;-89
2022/02/08 00:44:34;;;;;;;;;;;3.20;99.90;;;;;;4905209;29;19922;-89
2022/02/08 00:47:28;;;;;;;;;;;3.20;99.90;;;;;;4921243;29;19929;-89
2022/02/08 00:49:48;;;;;;;;;;;3.30;99.90;;;;;;4919476;29;19911;-89
2022/02/08 00:52:17;;;;;;;;;;;3.30;99.90;;;;;;4921253;29;19936;-90
2022/02/08 00:54:53;;;;;;;;;;;3.30;99.90;;;;;;4904711;29;19962;-89
2022/02/08 00:57:21;;;;;;;;;;;3.30;99.90;;;;;;4904546;29;20351;-90
2022/02/08 00:59:55;;;;;;;;;;;3.30;99.90;;;;;;4904213;29;19915;-90
2022/02/08 01:02:23;;;;;;;;;;;3.40;99.90;;;;;;4904488;29;19918;-90
2022/02/08 01:05:07;;;;;;;;;;;3.40;99.90;;;;;;4904259;29;19963;-89
2022/02/08 01:07:34;;;;;;;;;;;3.50;99.90;;;;;;4920647;29;20382;-90
2022/02/08 01:10:01;;;;;;;;;;;3.50;99.90;;;;;;4904117;29;19911;-90
2022/02/08 01:12:31;;;;;;;;;;;3.50;99.90;;;;;;4904427;29;20002;-90
2022/02/08 01:15:02;;;;;;;;;;;3.50;99.90;;;;;;4903790;29;19911;-90
2022/02/08 01:17:30;;;;;;;;;;;3.60;99.90;;;;;;4904717;29;19946;-89
2022/02/08 01:20:10;;;;;;;;;;;3.60;99.90;;;;;;4903854;29;19919;-89
2022/02/08 01:22:45;;;;;;;;;;;3.60;99.90;;;;;;4920888;29;19911;-89
2022/02/08 01:25:20;;;;;;;;;;;3.60;99.90;;;;;;4920463;29;19919;-89
2022/02/08 01:27:48;;;;;;;;;;;3.50;99.90;;;;;;4903783;29;20002;-90
2022/02/08 01:38:13;;;;;;;;;;;3.50;99.90;;;;;;4920314;29;19919;-89
2022/02/08 01:44:02;;;;;;;;;;;3.50;99.90;;;;;;4920324;29;19915;-89
2022/02/08 01:46:32;;;;;;;;;;;3.50;99.90;;;;;;4919853;29;19923;-90
2022/02/08 01:52:06;;;;;;;;;;;3.50;99.90;;;;;;4862362;29;19961;-89
2022/02/08 01:54:39;;;;;;;;;;;3.50;99.90;;;;;;4912102;29;19911;-89
2022/02/08 01:57:11;;;;;;;;;;;3.40;99.90;;;;;;4927914;29;19919;-89
2022/02/08 01:59:46;;;;;;;;;;;3.40;99.90;;;;;;4903605;29;19912;-89
2022/02/08 02:02:15;;;;;;;;;;;3.40;99.90;;;;;;4919517;29;19992;-89
2022/02/08 02:04:54;;;;;;;;;;;;;;;;;;;;;
2022/02/08 02:07:27;;;;;;;;;;;3.40;99.90;;;;;;4919655;29;19912;-89
2022/02/08 02:09:55;;;;;;;;;;;3.30;99.90;;;;;;4903645;29;19915;-90
2022/02/08 02:12:35;;;;;;;;;;;3.30;99.90;;;;;;4902872;29;19911;-90
2022/02/08 02:15:05;;;;;;;;;;;3.20;99.90;;;;;;4902862;29;19998;-90
2022/02/08 02:17:34;;;;;;;;;;;3.10;99.90;;;;;;4903479;29;20018;-90
2022/02/08 02:20:00;;;;;;;;;;;3.10;99.90;;;;;;4919570;29;19911;-90
2022/02/08 02:22:30;;;;;;;;;;;2.90;99.90;;;;;;4903250;29;20019;-90
2022/02/08 02:24:56;;;;;;;;;;;2.90;99.90;;;;;;4919790;29;19978;-89
2022/02/08 02:27:32;;;;;;;;;;;2.90;99.90;;;;;;4903152;29;20355;-89
2022/02/08 02:30:16;;;;;;;;;;;2.90;99.90;;;;;;4903061;29;20364;-89
2022/02/08 02:32:44;;;;;;;;;;;2.90;99.90;;;;;;4902110;29;19946;-89
2022/02/08 02:35:12;;;;;;;;;;;2.80;99.90;;;;;;4902279;29;19962;-89
2022/02/08 02:37:38;;;;;;;;;;;2.80;99.90;;;;;;4918079;29;19942;-89
2022/02/08 02:40:06;;;;;;;;;;;2.90;99.90;;;;;;4902636;29;20406;-90
2022/02/08 02:42:35;;;;;;;;;;;2.90;99.90;;;;;;4902290;29;19922;-90
2022/02/08 02:45:05;;;;;;;;;;;2.80;99.90;;;;;;4901698;29;19911;-90
2022/02/08 02:47:36;;;;;;;;;;;2.80;99.90;;;;;;4902145;29;19958;-89
2022/02/08 02:50:04;;;;;;;;;;;2.80;99.90;;;;;;4902605;29;19912;-89
2022/02/08 02:52:35;;;;;;;;;;;2.80;99.90;;;;;;4902273;29;19911;-89
2022/02/08 02:55:12;;;;;;;;;;;2.80;99.90;;;;;;4918706;29;20367;-90
2022/02/08 02:57:40;;;;;;;;;;;2.80;99.90;;;;;;4902201;29;19923;-90
2022/02/08 03:00:12;;;;;;;;;;;2.80;99.90;;;;;;4901983;29;19911;-90
2022/02/08 03:02:54;;;;;;;;;;;2.80;99.90;;;;;;4902286;29;19919;-90
2022/02/08 03:05:49;;;;;;;;;;;2.80;99.90;;;;;;4902824;29;20365;-90
2022/02/08 03:19:26;;;;;;;;;;;2.90;99.90;;;;;;4918893;29;20021;-90
2022/02/08 03:21:56;;;;;;;;;;;2.90;99.90;;;;;;4901987;29;19963;-90
2022/02/08 03:24:29;;;;;;;;;;;2.90;99.90;;;;;;4917957;29;19912;-90
2022/02/08 03:27:15;;;;;;;;;;;2.90;99.90;;;;;;4918774;29;20054;-90
2022/02/08 03:29:47;;;;;;;;;;;3.00;99.90;;;;;;4902288;29;20394;-90
2022/02/08 03:32:14;;;;;;;;;;;3.00;99.90;;;;;;4901685;29;19966;-89
2022/02/08 03:34:45;;;;;;;;;;;3.00;99.90;;;;;;4901583;29;19964;-90
2022/02/08 03:37:18;;;;;;;;;;;3.00;99.90;;;;;;4901587;29;19919;-90
2022/02/08 03:39:53;;;;;;;;;;;3.00;99.90;;;;;;4902374;29;19911;-91
2022/02/08 03:42:28;;;;;;;;;;;3.00;99.90;;;;;;4902217;29;19927;-90
2022/02/08 03:45:11;;;;;;;;;;;2.90;99.90;;;;;;4902427;29;20005;-90
2022/02/08 03:47:39;;;;;;;;;;;2.80;99.90;;;;;;4901342;29;19928;-90
2022/02/08 03:50:05;;;;;;;;;;;2.80;99.90;;;;;;4896391;29;19960;-91
2022/02/08 03:52:40;;;;;;;;;;;2.70;99.90;;;;;;4909935;29;19916;-89
2022/02/08 03:57:54;;;;;;;;;;;2.70;99.90;;;;;;4910340;29;20292;-90
2022/02/08 04:00:33;;;;;;;;;;;2.70;99.90;;;;;;4912037;29;19958;-90
2022/02/08 04:03:01;;;;;;;;;;;2.70;99.90;;;;;;4905755;29;19912;-90
2022/02/08 04:05:54;;;;;;;;;;;2.70;99.90;;;;;;4902677;29;20343;-90
2022/02/08 04:08:19;;;;;;;;;;;2.70;99.90;;;;;;4903447;29;20014;-90
2022/02/08 04:10:47;;;;;;;;;;;2.70;99.90;;;;;;4902137;29;19911;-90
2022/02/08 04:13:24;;;;;;;;;;;2.70;99.90;;;;;;4902465;29;20067;-90
2022/02/08 04:19:16;;;;;;;;;;;2.50;99.90;;;;;;4871057;29;19919;-90
2022/02/08 04:35:43;;;;;;;;;;;2.40;99.90;;;;;;4902768;29;19919;-90
2022/02/08 04:41:08;;;;;;;;;;;2.30;99.90;;;;;;4902785;29;20267;-90
2022/02/08 04:44:01;;;;;;;;;;;2.30;99.90;;;;;;4901521;29;19911;-90
2022/02/08 04:46:50;;;;;;;;;;;2.30;99.90;;;;;;4901692;29;19923;-90
2022/02/08 04:49:19;;;;;;;;;;;2.20;99.90;;;;;;4901423;29;20010;-89
2022/02/08 04:51:51;;;;;;;;;;;2.20;99.90;;;;;;4901168;29;19912;-90
2022/02/08 04:57:31;;;;;;;;;;;2.10;99.90;;;;;;4897445;29;19927;-89
2022/02/08 05:42:09;;;;;;;;;;;1.80;99.90;;;;;;4869658;29;19920;-90
2022/02/08 05:47:29;;;;;;;;;;;1.80;99.90;;;;;;4910605;29;20371;-89
2022/02/08 05:50:11;;;;;;;;;;;1.80;99.90;;;;;;4904051;29;19916;-91
2022/02/08 05:55:29;;;;;;;;;;;1.70;99.90;;;;;;4920538;29;19934;-91
2022/02/08 05:58:00;;;;;;;;;;;1.70;99.90;;;;;;4903047;29;19978;-90
2022/02/08 06:00:29;;;;;;;;;;;1.80;99.90;;;;;;4903330;29;20340;-90
2022/02/08 06:03:11;;;;;;;;;;;1.70;99.90;;;;;;4919030;29;19911;-91
2022/02/08 06:05:37;;;;;;;;;;;1.70;99.90;;;;;;4903413;29;19912;-90
2022/02/08 06:08:03;;;;;;;;;;;1.70;99.90;;;;;;4903024;29;19911;-90
2022/02/08 06:10:32;;;;;;;;;;;1.70;99.90;;;;;;4902513;29;19992;-90
2022/02/08 06:13:09;;;;;;;;;;;1.70;99.90;;;;;;4902687;29;20018;-91
2022/02/08 06:15:37;;;;;;;;;;;1.70;99.90;;;;;;4903489;29;19911;-91
2022/02/08 06:18:03;;;;;;;;;;;1.70;99.90;;;;;;4903365;29;20307;-90
2022/02/08 06:20:28;;;;;;;;;;;1.70;99.90;;;;;;4902213;29;19919;-90
2022/02/08 06:22:55;;;;;;;;;;;1.70;99.90;;;;;;4902591;29;19979;-91
2022/02/08 06:25:43;;;;;;;;;;;1.70;99.90;;;;;;4902880;29;19911;-90
2022/02/08 06:28:12;;;;;;;;;;;1.70;99.90;;;;;;4902721;29;19918;-90
2022/02/08 06:30:40;;;;;;;;;;;1.70;99.90;;;;;;4902559;29;19991;-90
2022/02/08 06:33:12;;;;;;;;;;;1.70;99.90;;;;;;4927041;29;19940;-90
2022/02/08 06:35:38;;;;;;;;;;;1.70;99.90;;;;;;4913193;29;19915;-90
2022/02/08 06:38:11;;;;;;;;;;;1.80;99.90;;;;;;4912540;29;19919;-90
2022/02/08 06:41:03;;;;;;;;;;;1.80;99.90;;;;;;4905402;29;19911;-90
2022/02/08 06:43:30;;;;;;;;;;;1.80;99.90;;;;;;4918685;29;19976;-90
2022/02/08 06:46:00;;;;;;;;;;;1.80;99.90;;;;;;4902556;29;19912;-89
2022/02/08 06:48:28;;;;;;;;;;;1.80;99.90;;;;;;4918336;29;19915;-90
2022/02/08 06:50:56;;;;;;;;;;;1.80;99.90;;;;;;4902701;29;20355;-89
2022/02/08 06:53:26;;;;;;;;;;;1.80;99.90;;;;;;4918526;29;19911;-90
2022/02/08 06:55:51;;;;;;;;;;;1.80;99.90;;;;;;4919083;29;19911;-89
2022/02/08 06:58:19;;;;;;;;;;;1.80;99.90;;;;;;4901452;29;19930;-89
2022/02/08 07:01:01;;;;;;;;;;;1.80;99.90;;;;;;4901970;29;20351;-91
2022/02/08 07:07:16;;;;;;;;;;;1.90;99.90;;;;;;4817132;29;19913;-91
2022/02/08 07:09:57;;;;;;;;;;;;;;;;;;;;;
2022/02/08 07:12:26;;;;;;;;;;;2.00;99.90;;;;;;4823851;29;20254;-90
2022/02/08 07:15:10;;;;;;;;;;;2.00;99.90;;;;;;4879463;29;19911;-90
2022/02/08 07:17:35;;;;;;;;;;;2.00;99.90;;;;;;4917508;29;19919;-90
2022/02/08 07:20:06;;;;;;;;;;;2.00;99.90;;;;;;4902736;29;19911;-91
2022/02/08 07:22:32;;;;;;;;;;;2.10;99.90;;;;;;4901770;29;19958;-91
2022/02/08 07:25:00;;;;;;;;;;;2.10;99.90;;;;;;4901616;29;20374;-90
2022/02/08 07:27:29;;;;;;;;;;;2.10;99.90;;;;;;4902120;29;19918;-89
2022/02/08 07:29:55;;;;;;;;;;;2.10;99.90;;;;;;4901570;29;20418;-91
2022/02/08 07:32:29;;;;;;;;;;;2.10;99.90;;;;;;4904871;29;19918;-89
2022/02/08 07:35:22;;;;;;;;;;;2.10;99.90;;;;;;4905667;29;20371;-89
2022/02/08 07:38:03;;;;;;;;;;;2.10;99.90;;;;;;4922570;29;19923;-89
2022/02/08 07:46:01;;;;;;;;;;;2.20;99.90;;;;;;4922441;29;19911;-93
2022/02/08 07:48:38;;;;;;;;;;;2.10;99.90;;;;;;4905443;29;19923;-91
2022/02/08 07:51:25;;;;;;;;;;;;;;;;;;;;;
2022/02/08 07:54:06;;;;;;;;;;;2.10;99.90;;;;;;4939206;29;19933;-92
2022/02/08 07:56:39;;;;;;;;;;;2.20;99.90;;;;;;4921600;29;19977;-91
2022/02/08 07:59:13;;;;;;;;;;;2.20;99.90;;;;;;4923293;29;19915;-92
2022/02/08 08:01:42;;;;;;;;;;;2.20;99.90;;;;;;4924294;29;19911;-91
2022/02/08 08:04:16;;;;;;;;;;;2.20;99.90;;;;;;4922832;29;20005;-90
2022/02/08 08:06:44;;;;;;;;;;;2.20;99.90;;;;;;4922863;29;20037;-90
2022/02/08 08:09:30;;;;;;;;;;;2.30;99.90;;;;;;4907183;29;20386;-90
2022/02/08 08:12:21;;;;;;;;;;;2.30;99.90;;;;;;4922650;29;20005;-91
2022/02/08 08:15:22;;;;;;;;;;;2.30;99.90;;;;;;4924312;29;19986;-90
2022/02/08 08:18:15;;;;;;;;;;;2.30;99.90;;;;;;4918869;29;19941;-92
2022/02/08 08:20:43;;;;;;;;;;;2.30;99.90;;;;;;4921938;29;20394;-89
2022/02/08 08:23:11;;;;;;;;;;;2.30;99.90;;;;;;4905169;29;20342;-91
2022/02/08 08:25:42;;;;;;;;;;;2.40;99.90;;;;;;4904465;29;20044;-91
2022/02/08 08:28:10;;;;;;;;;;;2.40;99.90;;;;;;4904348;29;19922;-92
2022/02/08 08:30:41;;;;;;;;;;;2.40;99.90;;;;;;4905140;29;19911;-90
2022/02/08 08:33:07;;;;;;;;;;;2.50;99.90;;;;;;4919869;29;19986;-88
2022/02/08 08:35:49;;;;;;;;;;;2.50;99.90;;;;;;4904145;29;19990;-90
2022/02/08 08:38:31;;;;;;;;;;;2.40;99.90;;;;;;4920052;29;19926;-91
2022/02/08 08:41:08;;;;;;;;;;;2.40;99.90;;;;;;4919721;29;19911;-90
2022/02/08 08:51:43;;;;;;;;;;;2.40;99.90;;;;;;4921289;29;19911;-91
2022/02/08 08:54:18;;;;;;;;;;;2.40;99.90;;;;;;4920385;29;19911;-89
2022/02/08 08:56:50;;;;;;;;;;;2.40;99.90;;;;;;4903674;29;19919;-90
2022/02/08 08:59:25;;;;;;;;;;;2.40;99.90;;;;;;4903879;29;19918;-90
2022/02/08 09:01:58;;;;;;;;;;;2.40;99.90;;;;;;4922665;29;20007;-89
2022/02/08 09:07:59;;;;;;;;;;;;;;;;;;;;;
2022/02/08 09:11:33;;;;;;;;;;;;;;;;;;;;;
2022/02/08 09:14:23;;;;;;;;;;;2.70;99.90;;;;;;4825985;29;19974;-92
2022/02/08 10:39:27;;;;;;;;;;;3.50;99.90;;;;;;4823804;29;20301;-90
2022/02/08 10:41:58;;;;;;;;;;;3.60;99.90;;;;;;4823269;29;19917;-90
2022/02/08 10:44:56;;;;;;;;;;;3.60;99.90;;;;;;4823367;29;19924;-91
2022/02/08 10:47:45;;;;;;;;;;;3.70;99.90;;;;;;4823663;29;20315;-89
2022/02/08 10:50:16;;;;;;;;;;;3.70;99.90;;;;;;4823333;29;19916;-89
2022/02/08 10:52:55;;;;;;;;;;;3.70;99.90;;;;;;4862118;29;19916;-89
2022/02/08 10:59:03;;;;;;;;;;;;;;;;;;;;;
2022/02/08 11:05:13;;;;;;;;;;;3.90;99.90;;;;;;4840841;29;19922;-91
2022/02/08 11:53:08;;;;;;;;;;;;;;;;;;;;;
2022/02/08 12:08:20;;;;;;;;;;;4.00;99.90;;;;;;4770778;29;20894;-91
2022/02/08 12:12:14;;;;;;;;;;;4.00;99.90;;;;;;4754270;30;19925;-91
2022/02/08 12:54:12;;;;;;;;;;;3.60;99.50;;;;;;4749740;30;19925;-91
2022/02/08 12:59:53;;;;;;;;;;;3.50;99.60;;;;;;4742108;30;19922;-92
2022/02/08 13:14:22;;;;;;;;;;;3.50;99.80;;;;;;4751093;30;20352;-91
2022/02/08 13:32:11;;;;;;;;;;;3.50;96.30;;;;;;4883641;29;20011;-91
2022/02/08 14:09:21;;;;;;;;;;;3.50;90.40;;;;;;4841189;29;19992;-93
2022/02/08 14:14:54;;;;;;;;;;;3.50;95.10;;;;;;4863756;29;19912;-90
2022/02/08 14:17:58;;;;;;;;;;;3.50;95.00;;;;;;4817358;29;20351;-92
2022/02/08 14:29:46;;;;;;;;;;;4.30;93.30;;;;;;4843068;29;19961;-89
2022/02/08 14:33:07;;;;;;;;;;;4.50;93.10;;;;;;4856379;29;20340;-88
2022/02/08 14:36:21;;;;;;;;;;;4.40;88.80;;;;;;4846762;29;19932;-91
2022/02/08 15:14:01;;;;;;;;;;;3.10;86.70;;;;;;4862258;29;19961;-92
2022/02/08 15:16:57;;;;;;;;;;;3.00;84.60;;;;;;4852593;29;19920;-91
2022/02/08 15:20:13;;;;;;;;;;;;;;;;;;;;;
2022/02/08 15:26:20;;;;;;;;;;;2.90;90.80;;;;;;4755573;30;19993;-91
2022/02/08 15:32:13;;;;;;;;;;;;;;;;;;;;;
2022/02/08 15:35:35;;;;;;;;;;;2.90;93.40;;;;;;4730601;30;19927;-92
2022/02/08 15:38:13;;;;;;;;;;;2.90;90.20;;;;;;4685819;30;20069;-92
2022/02/08 15:41:18;;;;;;;;;;;;;;;;;;;;;
2022/02/08 15:43:53;;;;;;;;;;;2.90;91.80;;;;;;4733406;30;19924;-93
2022/02/08 15:46:45;;;;;;;;;;;2.90;89.60;;;;;;4717973;30;19915;-93
2022/02/08 15:49:56;;;;;;;;;;;2.90;89.70;;;;;;4695467;30;19915;-95
2022/02/08 15:56:02;;;;;;;;;;;;;;;;;;;;;
2022/02/08 16:17:45;;;;;;;;;;;;;;;;;;;;;
2022/02/08 17:18:42;;;;;;;;;;;;;;;;;;;;;
2022/02/08 17:49:15;;;;;;;;;;;3.00;86.70;;;;;;4841765;29;20276;-91
2022/02/08 17:52:14;;;;;;;;;;;3.00;92.30;;;;;;4861705;29;19919;-91
2022/02/08 17:54:57;;;;;;;;;;;;;;;;;;;;;
2022/02/08 17:57:41;;;;;;;;;;;3.00;90.60;;;;;;4882178;29;20225;-91
2022/02/08 18:03:44;;;;;;;;;;;3.10;94.30;;;;;;4877986;29;19912;-92
2022/02/08 18:09:24;;;;;;;;;;;3.10;92.50;;;;;;4842976;29;19959;-91
2022/02/08 18:12:02;;;;;;;;;;;3.10;91.00;;;;;;4878244;29;19924;-92
2022/02/08 18:15:34;;;;;;;;;;;;;;;;;;;;;
2022/02/08 18:22:11;;;;;;;;;;;3.00;89.70;;;;;;4807469;29;19955;-91
2022/02/08 19:04:11;;;;;;;;;;;3.10;86.70;;;;;;4896767;29;19936;-92
2022/02/08 19:27:42;;;;;;;;;;;3.00;83.90;;;;;;4815839;29;19920;-92
2022/02/08 19:36:57;;;;;;;;;;;3.00;84.90;;;;;;4810520;29;19913;-93
2022/02/08 19:39:46;;;;;;;;;;;3.00;86.80;;;;;;4819756;29;19921;-92
2022/02/08 19:48:41;;;;;;;;;;;3.00;83.70;;;;;;4868126;29;19912;-93
2022/02/08 19:54:36;;;;;;;;;;;3.10;89.20;;;;;;4868173;29;20427;-92
2022/02/08 20:09:45;;;;;;;;;;;;;;;;;;;;;
2022/02/08 20:19:01;;;;;;;;;;;2.90;82.90;;;;;;4861974;29;20019;-93
2022/02/08 20:21:49;;;;;;;;;;;2.90;85.90;;;;;;4880206;29;19951;-93
2022/02/08 20:24:36;;;;;;;;;;;;;;;;;;;;;
2022/02/08 20:36:16;;;;;;;;;;;;;;;;;;;;;
2022/02/08 20:39:12;;;;;;;;;;;3.10;85.90;;;;;;4879248;29;20253;-90
2022/02/08 20:45:06;;;;;;;;;;;;;;;;;;;;;
2022/02/08 20:51:27;;;;;;;;;;;3.00;82.30;;;;;;4845379;29;19961;-90
2022/02/08 20:57:27;;;;;;;;;;;2.90;83.50;;;;;;4808019;29;19919;-91
2022/02/08 21:13:38;;;;;;;;;;;;;;;;;;;;;
2022/02/08 21:27:24;;;;;;;;;;;3.00;84.70;;;;;;4883869;29;19968;-90
2022/02/08 21:53:52;;;;;;;;;;;3.10;86.00;;;;;;4882797;29;19912;-90
2022/02/08 21:56:26;;;;;;;;;;;3.10;87.50;;;;;;4863932;29;19939;-90
2022/02/08 21:59:25;;;;;;;;;;;3.10;88.20;;;;;;4883064;29;19920;-90
2022/02/08 22:02:01;;;;;;;;;;;3.10;85.90;;;;;;4866480;29;19912;-90
2022/02/08 22:08:26;;;;;;;;;;;;;;;;;;;;;
2022/02/08 22:32:02;;;;;;;;;;;;;;;;;;;;;
2022/02/08 22:40:55;;;;;;;;;;;;;;;;;;;;;
2022/02/08 22:46:49;;;;;;;;;;;2.60;88.80;;;;;;4836584;29;20000;-91
2022/02/08 22:56:00;;;;;;;;;;;;;;;;;;;;;
2022/02/08 22:58:51;;;;;;;;;;;2.70;89.50;;;;;;4882054;29;19923;-91
2022/02/08 23:04:48;;;;;;;;;;;;;;;;;;;;;
2022/02/08 23:10:39;;;;;;;;;;;;;;;;;;;;;
2022/02/08 23:43:09;;;;;;;;;;;2.60;91.30;;;;;;4881882;29;20013;-91
2022/02/08 23:45:39;;;;;;;;;;;2.60;91.30;;;;;;4878357;29;19923;-91
2022/02/08 23:49:01;;;;;;;;;;;2.60;91.50;;;;;;4864852;29;19968;-91
2022/02/08 23:54:18;;;;;;;;;;;;;;;;;;;;;
2022/02/08 23:57:13;;;;;;;;;;;;;;;;;;;;;
